Time;durP1;ratioP1;P1;durP2;ratioP2;P2;SDS_P1;SDS_P2;PMS_P1;PMS_P2;Temp;Humidity;BMP_temperature;BMP_pressure;BME280_temperature;BME280_humidity;BME280_pressure;Samples;Min_cycle;Max_cycle;Signal;HPM_P1;HPM_P2
2022/05/16 04:32:27;;;;;;;;;10.75;10.75;;;;;19.53;70.24;101016.22;5085023;27;46038;-73
2022/05/16 04:34:52;;;;;;;;;13.75;13.50;;;;;19.56;69.89;101017.84;5096415;27;45541;-72
2022/05/16 04:37:17;;;;;;;;;15.50;12.50;;;;;19.50;70.45;101023.72;5096544;27;45638;-73
2022/05/16 04:39:43;;;;;;;;;11.25;11.25;;;;;19.48;70.30;101025.72;5096787;27;45360;-72
2022/05/16 04:44:52;;;;;;;;;16.00;15.00;;;;;19.47;70.78;101041.19;5096218;27;45347;-72
2022/05/16 04:47:18;;;;;;;;;16.50;13.00;;;;;19.49;70.72;101054.63;5096119;27;45945;-73
2022/05/16 04:49:44;;;;;;;;;13.00;13.00;;;;;19.48;70.33;101051.03;5096119;27;45492;-74
2022/05/16 04:52:11;;;;;;;;;16.50;14.75;;;;;19.58;70.00;101048.47;5096368;27;45449;-73
2022/05/16 04:54:37;;;;;;;;;12.00;12.00;;;;;19.62;69.75;101077.19;5095983;27;45303;-74
2022/05/16 04:57:03;;;;;;;;;20.25;15.00;;;;;19.59;69.94;101086.44;5096093;27;45793;-73
2022/05/16 04:59:28;;;;;;;;;15.00;15.00;;;;;19.59;70.11;101082.84;5096149;27;45625;-74
2022/05/16 05:01:54;;;;;;;;;18.50;16.00;;;;;19.49;69.88;101077.25;5093575;27;45524;-73
2022/05/16 05:04:20;;;;;;;;;17.25;17.25;;;;;19.59;69.99;101104.59;5078001;27;45473;-74
2022/05/16 05:06:46;;;;;;;;;18.00;18.00;;;;;19.43;70.20;101076.84;5096202;27;46058;-74
2022/05/16 05:09:11;;;;;;;;;15.00;15.00;;;;;19.64;69.77;101106.00;5096147;27;45736;-72
2022/05/16 05:14:33;;;;;;;;;23.00;19.00;;;;;19.66;69.74;101108.56;5095848;27;45457;-74
2022/05/16 05:17:10;;;;;;;;;20.50;20.50;;;;;19.56;69.51;101110.31;5074997;28;45605;-72
2022/05/16 05:19:39;;;;;;;;;20.00;17.50;;;;;19.40;70.63;101096.09;5082688;27;45348;-73
2022/05/16 05:22:05;;;;;;;;;18.75;17.25;;;;;19.47;70.06;101098.28;5096915;27;45548;-73
2022/05/16 05:24:30;;;;;;;;;18.75;18.75;;;;;19.56;69.89;101107.59;5096987;27;45234;-70
2022/05/16 05:26:55;;;;;;;;;23.25;21.00;;;;;19.54;69.97;101101.38;5095327;27;46659;-77
2022/05/16 05:29:22;;;;;;;;;21.00;20.75;;;;;19.40;69.90;101087.94;5069815;28;45548;-72
2022/05/16 05:31:48;;;;;;;;;20.25;18.25;;;;;19.56;69.90;101119.31;5074770;28;45394;-73
2022/05/16 05:34:14;;;;;;;;;20.75;20.75;;;;;19.56;69.51;101118.47;5075054;28;45437;-76
2022/05/16 05:36:40;;;;;;;;;20.50;19.75;;;;;19.67;69.36;101131.22;5074930;28;45512;-73
2022/05/16 05:39:06;;;;;;;;;25.50;20.75;;;;;19.59;69.65;101138.13;5075549;28;45673;-70
2022/05/16 05:41:31;;;;;;;;;19.75;19.25;;;;;19.53;69.37;101144.03;5075098;28;45411;-71
2022/05/16 05:43:57;;;;;;;;;26.00;22.00;;;;;19.50;69.72;101143.38;5075177;28;45375;-73
2022/05/16 05:46:22;;;;;;;;;19.75;18.25;;;;;19.55;69.23;101141.22;5075067;28;45459;-73
2022/05/16 05:48:48;;;;;;;;;17.25;15.75;;;;;19.55;68.86;101141.22;5074833;28;45327;-73
2022/05/16 05:51:14;;;;;;;;;19.00;18.50;;;;;19.64;68.67;101163.13;5075155;28;45406;-73
2022/05/16 05:53:41;;;;;;;;;18.75;18.75;;;;;19.76;68.15;101172.16;5074913;28;45494;-73
2022/05/16 05:56:08;;;;;;;;;20.50;19.25;;;;;19.79;67.71;101195.56;5074770;28;45564;-74
2022/05/16 05:58:34;;;;;;;;;25.50;22.75;;;;;19.75;68.13;101196.78;5075324;28;45500;-71
2022/05/16 06:01:00;;;;;;;;;25.50;23.00;;;;;19.58;68.90;101182.63;5075299;28;45404;-72
2022/05/16 06:03:26;;;;;;;;;18.00;15.50;;;;;19.70;68.53;101204.44;5077978;27;45624;-74
2022/05/16 06:05:53;;;;;;;;;20.50;18.75;;;;;19.74;68.33;101200.47;5079133;27;46162;-73
2022/05/16 06:08:18;;;;;;;;;19.25;15.75;;;;;19.79;67.97;101198.28;5065722;28;45395;-72
2022/05/16 06:10:44;;;;;;;;;20.50;20.50;;;;;19.77;67.66;101198.41;5072325;28;45384;-73
2022/05/16 06:13:09;;;;;;;;;21.75;19.75;;;;;19.74;67.77;101204.06;5083460;27;45462;-73
2022/05/16 06:15:35;;;;;;;;;23.75;20.50;;;;;19.78;67.30;101216.47;5085409;27;45379;-73
2022/05/16 06:18:01;;;;;;;;;24.50;23.25;;;;;19.65;67.58;101212.94;5072177;28;45367;-71
2022/05/16 06:20:27;;;;;;;;;21.00;19.50;;;;;19.54;68.21;101221.06;5072641;28;45606;-72
2022/05/16 06:22:54;;;;;;;;;23.00;21.00;;;;;19.36;68.23;101193.38;5081203;27;45477;-73
2022/05/16 06:25:33;;;;;;;;;20.25;18.00;;;;;19.43;68.39;101216.38;5092819;27;46347;-72
2022/05/16 06:28:01;;;;;;;;;21.50;20.00;;;;;19.39;68.45;101235.78;5082398;27;45464;-73
2022/05/16 06:30:27;;;;;;;;;16.75;16.75;;;;;19.27;68.64;101218.53;5072860;28;45310;-72
2022/05/16 06:32:52;;;;;;;;;20.00;19.25;;;;;19.40;68.40;101234.78;5084559;27;45496;-72
2022/05/16 06:35:18;;;;;;;;;22.75;19.25;;;;;19.37;67.92;101225.00;5096948;27;46388;-72
2022/05/16 06:37:44;;;;;;;;;22.50;21.25;;;;;19.45;68.07;101246.19;5085858;27;45324;-73
2022/05/16 06:40:11;;;;;;;;;19.25;19.25;;;;;19.55;67.60;101245.44;5077258;28;45577;-71
2022/05/16 06:42:36;;;;;;;;;20.25;16.75;;;;;19.49;67.84;101245.88;5074897;27;47183;-72
2022/05/16 06:45:04;;;;;;;;;22.50;21.00;;;;;19.50;67.67;101257.63;5076172;28;45609;-73
2022/05/16 06:47:29;;;;;;;;;15.50;15.50;;;;;19.59;67.22;101259.66;5057605;28;45952;-71
2022/05/16 06:49:54;;;;;;;;;18.00;18.00;;;;;19.64;66.94;101255.63;5089258;27;45313;-72
2022/05/16 06:52:21;;;;;;;;;19.75;19.75;;;;;19.51;66.49;101259.34;5075795;27;45475;-73
2022/05/16 06:54:46;;;;;;;;;16.25;16.25;;;;;19.47;66.86;101279.59;5094297;27;47419;-74
2022/05/16 06:57:12;;;;;;;;;20.50;18.50;;;;;19.42;66.73;101262.72;5096107;27;45473;-73
2022/05/16 06:59:37;;;;;;;;;21.25;20.00;;;;;19.48;66.07;101267.75;5078556;27;45529;-74
2022/05/16 07:02:05;;;;;;;;;21.50;19.00;;;;;19.50;66.07;101266.63;5075129;27;45618;-73
2022/05/16 07:04:30;;;;;;;;;17.25;15.75;;;;;19.78;64.56;101294.50;5078859;27;45557;-76
2022/05/16 07:06:57;;;;;;;;;16.25;16.25;;;;;19.78;64.86;101292.66;5096456;27;45513;-73
2022/05/16 07:09:22;;;;;;;;;12.50;12.50;;;;;19.83;62.83;101297.72;5078995;27;45472;-74
2022/05/16 07:11:47;;;;;;;;;12.75;11.25;;;;;19.93;62.94;101305.09;5075907;27;45507;-75
2022/05/16 07:14:13;;;;;;;;;13.75;13.75;;;;;19.93;62.57;101299.63;5093142;27;46442;-75
2022/05/16 07:16:39;;;;;;;;;17.00;16.00;;;;;20.00;62.08;101310.91;5077662;27;45179;-74
2022/05/16 07:19:06;;;;;;;;;11.75;10.00;;;;;20.07;62.08;101322.22;5079013;27;45314;-73
2022/05/16 07:21:32;;;;;;;;;13.50;11.75;;;;;20.14;61.87;101309.88;5075246;27;46041;-75
2022/05/16 07:23:57;;;;;;;;;12.50;9.75;;;;;20.30;61.72;101326.78;5079265;27;46040;-73
2022/05/16 07:29:07;;;;;;;;;15.75;13.25;;;;;20.31;61.31;101326.66;5095060;27;45384;-73
2022/05/16 07:31:32;;;;;;;;;13.00;13.00;;;;;20.39;62.24;101331.53;5095865;27;45180;-74
2022/05/16 07:33:58;;;;;;;;;13.50;11.75;;;;;20.41;60.35;101337.75;5092534;27;45493;-73
2022/05/16 07:36:24;;;;;;;;;14.75;12.75;;;;;20.34;61.25;101341.91;5075851;28;45386;-75
2022/05/16 07:38:50;;;;;;;;;16.25;13.00;;;;;20.45;61.39;101343.81;5080749;27;45418;-75
2022/05/16 07:41:15;;;;;;;;;13.25;13.25;;;;;20.46;60.62;101349.13;5095830;27;45301;-74
2022/05/16 07:43:42;;;;;;;;;12.00;10.50;;;;;20.43;60.50;101337.59;5089870;27;46896;-74
2022/05/16 07:46:07;;;;;;;;;13.25;13.00;;;;;20.50;60.34;101349.78;5075221;28;45357;-74
2022/05/16 07:48:33;;;;;;;;;12.50;10.50;;;;;20.50;59.32;101355.22;5085074;27;45517;-75
2022/05/16 07:50:59;;;;;;;;;13.75;12.00;;;;;20.40;58.60;101336.00;5075696;28;46678;-74
2022/05/16 07:53:24;;;;;;;;;12.75;10.50;;;;;20.32;58.21;101328.41;5079596;27;45828;-76
2022/05/16 07:55:53;;;;;;;;;11.50;11.50;;;;;20.51;58.65;101360.53;5095223;27;45338;-74
2022/05/16 07:58:20;;;;;;;;;10.50;7.25;;;;;20.59;58.14;101366.25;5082806;27;45264;-74
2022/05/16 08:00:48;;;;;;;;;11.50;11.50;;;;;20.64;57.98;101361.34;5064467;28;46421;-75
2022/05/16 08:03:15;;;;;;;;;8.25;8.25;;;;;20.71;57.40;101370.75;5079057;27;46015;-73
2022/05/16 08:05:41;;;;;;;;;9.75;9.75;;;;;20.65;56.08;101363.06;5075082;28;45310;-72
2022/05/16 08:10:52;;;;;;;;;13.25;10.00;;;;;20.49;57.46;101378.88;5095053;27;45468;-73
2022/05/16 08:13:17;;;;;;;;;14.00;10.25;;;;;20.45;57.67;101355.56;5085347;27;46052;-74
2022/05/16 08:15:43;;;;;;;;;11.00;10.50;;;;;20.60;57.38;101359.81;5082828;27;45473;-75
2022/05/16 08:18:12;;;;;;;;;11.75;8.00;;;;;20.74;56.41;101369.66;5083750;27;45495;-75
2022/05/16 08:20:41;;;;;;;;;9.75;8.25;;;;;20.74;55.85;101359.63;5094920;27;45627;-75
2022/05/16 08:23:07;;;;;;;;;16.50;11.75;;;;;20.78;56.23;101377.47;5085645;27;45979;-76
2022/05/16 08:25:32;;;;;;;;;10.25;7.50;;;;;20.85;56.11;101383.28;5091922;27;45849;-74
2022/05/16 08:27:58;;;;;;;;;8.25;6.75;;;;;20.82;55.37;101386.28;5094512;27;45554;-74
2022/05/16 08:30:24;;;;;;;;;10.25;7.50;;;;;20.83;55.86;101389.88;5077922;27;45353;-73
2022/05/16 08:32:50;;;;;;;;;11.00;8.50;;;;;20.83;55.52;101387.16;5062918;28;47202;-72
2022/05/16 08:35:18;;;;;;;;;4.50;3.00;;;;;20.85;55.05;101391.47;5078564;27;45425;-72
2022/05/16 08:41:02;;;;;;;;;9.50;8.50;;;;;20.84;55.29;101397.06;5075451;27;45252;-72
2022/05/16 08:44:18;;;;;;;;;7.25;5.50;;;;;20.69;55.27;101402.69;5077889;27;46087;-73
2022/05/16 08:46:58;;;;;;;;;11.50;7.25;;;;;20.53;56.10;101395.84;5063838;27;45385;-74
2022/05/16 08:49:47;;;;;;;;;8.00;8.00;;;;;20.55;56.81;101396.59;5086534;27;45384;-74
2022/05/16 08:52:19;;;;;;;;;8.00;7.00;;;;;20.63;57.03;101399.59;5094739;27;46432;-74
2022/05/16 08:55:01;;;;;;;;;8.00;8.00;;;;;20.79;57.10;101405.56;5077914;27;46072;-73
2022/05/16 08:57:44;;;;;;;;;9.50;7.25;;;;;20.86;55.53;101411.41;5073648;27;45474;-76
2022/05/16 09:00:18;;;;;;;;;5.75;5.75;;;;;20.79;56.79;101416.47;5085890;27;45838;-73
2022/05/16 09:02:44;;;;;;;;;9.25;9.25;;;;;20.76;57.82;101411.25;5079401;27;45631;-74
2022/05/16 09:05:20;;;;;;;;;9.00;8.00;;;;;20.69;58.73;101416.31;5071558;27;46077;-73
2022/05/16 09:07:50;;;;;;;;;12.25;7.75;;;;;20.67;58.66;101426.47;5091278;27;45324;-74
2022/05/16 09:10:21;;;;;;;;;7.75;7.50;;;;;20.52;58.67;101405.00;5082972;27;45434;-73
2022/05/16 09:13:04;;;;;;;;;7.75;7.50;;;;;20.67;59.25;101431.91;5076687;27;45531;-75
2022/05/16 09:15:47;;;;;;;;;9.00;9.00;;;;;20.39;59.45;101438.63;5087441;27;45547;-72
2022/05/16 09:18:15;;;;;;;;;8.75;7.50;;;;;20.25;60.17;101436.03;5080386;27;45312;-73
2022/05/16 09:20:53;;;;;;;;;11.00;9.50;;;;;20.30;60.68;101442.00;5076938;27;45377;-73
2022/05/16 09:23:34;;;;;;;;;8.00;8.00;;;;;20.38;60.95;101447.78;5073640;27;45513;-73
2022/05/16 09:26:10;;;;;;;;;12.00;10.00;;;;;20.22;60.51;101419.06;5086399;27;46398;-73
2022/05/16 09:28:59;;;;;;;;;12.25;11.75;;;;;20.35;60.76;101449.84;5080477;27;45482;-73
2022/05/16 09:31:30;;;;;;;;;8.00;8.00;;;;;20.50;60.22;101445.97;5073925;28;45337;-72
2022/05/16 09:33:58;;;;;;;;;10.25;9.00;;;;;20.44;59.96;101445.56;5068529;28;46995;-75
2022/05/16 09:36:30;;;;;;;;;9.25;8.25;;;;;20.51;59.57;101450.44;5065138;28;47297;-74
2022/05/16 09:38:56;;;;;;;;;9.25;9.25;;;;;20.72;58.80;101464.28;5080535;27;45335;-75
2022/05/16 09:41:36;;;;;;;;;10.75;9.50;;;;;20.63;58.86;101449.50;5061532;28;45470;-74
2022/05/16 09:44:11;;;;;;;;;11.75;9.75;;;;;20.69;58.80;101443.56;5075576;27;45504;-73
2022/05/16 09:46:43;;;;;;;;;11.75;10.25;;;;;20.64;57.91;101459.41;5057378;28;46766;-71
2022/05/16 09:49:26;;;;;;;;;8.00;7.75;;;;;20.69;57.73;101472.66;5084453;27;45857;-72
2022/05/16 09:51:52;;;;;;;;;10.00;8.50;;;;;20.73;58.34;101469.63;5093831;27;45454;-75
2022/05/16 09:54:27;;;;;;;;;10.25;9.25;;;;;20.84;58.74;101481.56;5093870;27;45453;-74
2022/05/16 09:57:16;;;;;;;;;10.00;10.00;;;;;20.77;58.20;101464.78;5085938;27;46149;-73
2022/05/16 09:59:46;;;;;;;;;13.00;10.00;;;;;20.81;58.51;101473.59;5070979;27;45279;-72
2022/05/16 10:02:18;;;;;;;;;12.75;11.00;;;;;20.83;57.85;101460.72;5073315;28;45540;-75
2022/05/16 10:04:46;;;;;;;;;11.50;10.50;;;;;20.90;58.56;101465.59;5083607;27;45290;-73
2022/05/16 10:07:12;;;;;;;;;14.25;11.25;;;;;20.98;58.53;101476.75;5072616;28;46192;-73
2022/05/16 10:09:48;;;;;;;;;14.75;9.75;;;;;20.95;58.86;101476.13;5077826;27;45413;-75
2022/05/16 10:12:17;;;;;;;;;12.00;9.25;;;;;20.98;59.02;101464.97;5075038;27;45286;-73
2022/05/16 10:14:43;;;;;;;;;14.75;11.00;;;;;20.93;58.06;101443.50;5081755;27;45562;-72
2022/05/16 10:17:13;;;;;;;;;10.50;10.50;;;;;21.04;58.43;101467.22;5072741;28;46164;-74
2022/05/16 10:19:40;;;;;;;;;12.00;10.00;;;;;21.21;58.46;101483.16;5080826;27;45895;-74
2022/05/16 10:22:14;;;;;;;;;10.50;10.50;;;;;21.21;57.34;101464.06;5091988;27;45399;-74
2022/05/16 10:24:47;;;;;;;;;12.25;12.25;;;;;21.30;56.96;101455.16;5078768;27;45297;-74
2022/05/16 10:27:15;;;;;;;;;11.25;11.25;;;;;21.40;57.08;101477.13;5072512;28;45532;-74
2022/05/16 10:29:48;;;;;;;;;7.75;7.75;;;;;21.44;57.18;101460.38;5082681;27;45395;-74
2022/05/16 10:35:30;;;;;;;;;10.25;9.25;;;;;21.63;55.83;101473.41;5091429;27;45297;-73
2022/05/16 10:38:00;;;;;;;;;10.25;10.25;;;;;21.79;55.68;101473.91;5093221;27;46113;-72
2022/05/16 10:40:36;;;;;;;;;9.00;9.00;;;;;21.88;54.87;101477.75;5079451;27;45398;-78
2022/05/16 10:43:10;;;;;;;;;12.75;12.00;;;;;21.89;54.90;101477.63;5054694;28;45354;-76
2022/05/16 10:45:40;;;;;;;;;10.25;10.25;;;;;22.11;54.92;101470.44;5080914;27;45387;-74
2022/05/16 10:48:24;;;;;;;;;12.75;11.75;;;;;22.32;54.47;101468.66;5092860;27;47084;-76
2022/05/16 10:51:16;;;;;;;;;13.50;10.50;;;;;22.30;53.48;101464.31;5063187;28;45539;-75
2022/05/16 10:54:03;;;;;;;;;9.50;9.50;;;;;22.45;53.59;101479.44;5072914;27;45662;-75
2022/05/16 10:56:40;;;;;;;;;12.25;11.00;;;;;22.60;53.27;101464.47;5088267;27;45444;-73
2022/05/16 10:59:18;;;;;;;;;12.25;11.00;;;;;22.81;51.88;101476.31;5081037;27;46301;-76
2022/05/16 11:02:04;;;;;;;;;8.00;8.00;;;;;22.95;51.77;101469.69;5061041;27;45901;-73
2022/05/16 11:04:54;;;;;;;;;6.25;6.25;;;;;23.04;49.63;101473.50;5078179;27;45378;-72
2022/05/16 11:07:25;;;;;;;;;8.00;8.00;;;;;23.07;49.55;101474.06;5094855;27;45188;-75
2022/05/16 11:09:59;;;;;;;;;11.25;9.50;;;;;23.19;49.84;101464.81;5094500;27;46386;-77
2022/05/16 11:13:05;;;;;;;;;8.50;8.50;;;;;23.31;49.90;101465.59;5094248;27;45800;-71
2022/05/16 11:15:36;;;;;;;;;8.50;7.50;;;;;23.39;49.40;101469.38;5085173;27;45478;-73
2022/05/16 11:18:20;;;;;;;;;11.00;9.50;;;;;23.52;49.55;101469.22;5074047;28;45665;-74
2022/05/16 11:21:02;;;;;;;;;8.75;7.50;;;;;23.63;49.84;101479.22;5076303;28;45413;-71
2022/05/16 11:23:33;;;;;;;;;7.75;7.50;;;;;23.68;47.41;101468.72;5077600;28;45316;-72
2022/05/16 11:26:20;;;;;;;;;7.50;6.25;;;;;23.78;47.53;101472.38;5084993;27;45384;-69
2022/05/16 11:32:13;;;;;;;;;9.50;7.25;;;;;23.86;47.55;101468.94;5097375;27;45512;-70
2022/05/16 11:34:51;;;;;;;;;9.75;7.25;;;;;24.00;46.64;101474.00;5076186;27;45409;-71
2022/05/16 11:37:23;;;;;;;;;5.00;5.00;;;;;24.11;46.10;101469.31;5079473;27;45539;-69
2022/05/16 11:40:02;;;;;;;;;7.50;6.00;;;;;24.29;45.67;101466.78;5097704;27;45546;-70
2022/05/16 11:42:53;;;;;;;;;5.50;5.50;;;;;24.25;45.57;101456.22;5097607;27;45491;-69
2022/05/16 11:45:37;;;;;;;;;7.00;6.50;;;;;24.30;45.90;101456.69;5075386;27;45707;-70
2022/05/16 11:48:32;;;;;;;;;8.00;5.50;;;;;24.23;44.87;101463.75;5076971;27;45449;-69
2022/05/16 11:51:43;;;;;;;;;6.00;6.00;;;;;24.42;45.43;101450.91;5067249;27;45386;-67
2022/05/16 11:54:13;;;;;;;;;4.25;3.00;;;;;24.54;44.96;101450.78;5057051;27;46461;-70
2022/05/16 12:02:42;;;;;;;;;3.75;3.75;;;;;24.75;43.56;101429.59;5074820;27;45347;-69
2022/05/16 12:05:31;;;;;;;;;2.75;2.75;;;;;25.05;44.33;101439.53;5085637;27;46431;-71
2022/05/16 12:08:09;;;;;;;;;8.75;7.00;;;;;25.14;43.92;101439.53;5079747;27;45350;-69
2022/05/16 12:10:34;;;;;;;;;4.00;4.00;;;;;25.47;44.14;101427.16;5081508;27;45263;-70
2022/05/16 12:13:18;;;;;;;;;5.00;5.00;;;;;25.69;41.15;101436.06;5074840;27;45323;-69
2022/05/16 12:15:46;;;;;;;;;5.00;3.50;;;;;25.78;40.43;101429.66;5087681;27;45931;-70
2022/05/16 12:18:46;;;;;;;;;5.25;5.25;;;;;26.00;40.61;101429.25;5074425;27;45451;-69
2022/05/16 12:21:33;;;;;;;;;4.00;3.00;;;;;26.14;40.00;101434.22;5032189;27;45598;-70
2022/05/16 12:24:15;;;;;;;;;5.25;4.25;;;;;25.96;38.97;101428.69;5078586;27;45613;-69
2022/05/16 12:26:44;;;;;;;;;2.00;2.00;;;;;25.86;39.82;101433.38;5095136;27;46564;-70
2022/05/16 12:29:09;;;;;;;;;3.00;3.00;;;;;25.94;40.22;101430.75;5087843;27;45383;-70
2022/05/16 12:31:51;;;;;;;;;3.50;3.50;;;;;26.28;39.62;101424.63;5073654;28;45532;-70
2022/05/16 12:34:28;;;;;;;;;3.75;3.75;;;;;26.54;39.30;101425.56;5083741;27;45350;-70
2022/05/16 12:36:58;;;;;;;;;3.25;3.25;;;;;26.78;38.19;101421.34;5094741;27;46148;-70
2022/05/16 12:39:29;;;;;;;;;3.00;3.00;;;;;26.94;37.67;101422.34;5084367;27;45488;-70
2022/05/16 12:42:30;;;;;;;;;2.50;2.50;;;;;27.00;37.56;101415.34;5093833;27;45266;-69
2022/05/16 12:44:59;;;;;;;;;3.00;3.00;;;;;27.42;36.79;101427.34;5044839;27;45792;-70
2022/05/16 12:47:36;;;;;;;;;2.00;2.00;;;;;27.57;37.52;101426.75;5073805;28;45497;-70
2022/05/16 12:50:07;;;;;;;;;3.00;3.00;;;;;27.60;37.38;101424.53;5079505;27;45266;-71
2022/05/16 12:52:54;;;;;;;;;3.00;3.00;;;;;28.10;37.81;101424.56;5095081;27;45708;-69
2022/05/16 12:55:50;;;;;;;;;5.00;3.25;;;;;28.76;35.19;101420.03;5085360;27;45714;-70
2022/05/16 12:58:25;;;;;;;;;1.50;1.50;;;;;28.58;35.09;101423.84;5073371;28;45366;-70
2022/05/16 13:01:09;;;;;;;;;2.25;2.25;;;;;28.43;36.24;101431.06;5088221;27;45348;-70
2022/05/16 13:03:44;;;;;;;;;4.25;2.75;;;;;28.19;36.13;101420.84;5077380;27;45527;-71
2022/05/16 13:06:41;;;;;;;;;2.25;2.00;;;;;27.91;37.40;101430.34;5091197;27;45547;-71
2022/05/16 13:09:09;;;;;;;;;3.00;2.00;;;;;27.60;37.96;101432.81;5088720;27;46527;-69
2022/05/16 13:11:45;;;;;;;;;3.00;3.00;;;;;27.18;38.23;101421.66;5093956;27;45508;-69
2022/05/16 13:14:14;;;;;;;;;1.50;1.50;;;;;26.88;38.21;101422.94;5084769;27;45391;-69
2022/05/16 13:16:50;;;;;;;;;1.50;1.50;;;;;27.08;37.79;101418.16;5074402;27;45528;-69
2022/05/16 13:19:23;;;;;;;;;3.00;1.50;;;;;27.13;38.23;101426.81;5086541;27;46157;-71
2022/05/16 13:22:10;;;;;;;;;2.75;2.75;;;;;26.79;38.53;101431.31;5073588;28;45205;-70
2022/05/16 13:24:36;;;;;;;;;3.00;3.00;;;;;26.26;38.98;101419.28;5082519;27;45327;-69
2022/05/16 13:29:52;;;;;;;;;4.00;2.75;;;;;26.13;40.25;101418.75;5093383;27;45401;-70
2022/05/16 13:32:20;;;;;;;;;3.00;2.00;;;;;26.03;39.52;101423.44;5074140;27;45331;-69
2022/05/16 13:34:51;;;;;;;;;3.25;2.00;;;;;25.85;39.85;101417.06;5083186;27;45252;-69
2022/05/16 13:37:23;;;;;;;;;3.75;3.75;;;;;25.82;40.37;101415.47;5073048;27;45536;-71
2022/05/16 13:39:56;;;;;;;;;3.00;2.50;;;;;25.89;40.89;101418.47;5082544;27;45378;-69
2022/05/16 13:42:22;;;;;;;;;3.25;1.75;;;;;26.54;39.49;101410.97;5072182;28;45421;-69
2022/05/16 13:44:48;;;;;;;;;1.75;1.75;;;;;26.92;39.40;101415.28;5081285;27;45345;-69
2022/05/16 13:47:20;;;;;;;;;2.00;1.25;;;;;27.58;37.65;101418.31;5073147;28;45445;-70
2022/05/16 13:49:46;;;;;;;;;1.50;1.50;;;;;28.28;34.61;101412.59;5079558;27;46171;-70
2022/05/16 13:52:24;;;;;;;;;3.75;2.75;;;;;29.04;33.34;101407.66;5073730;28;45296;-70
2022/05/16 13:54:52;;;;;;;;;2.00;2.00;;;;;29.93;32.89;101410.19;5073066;28;45640;-70
2022/05/16 13:57:23;;;;;;;;;2.00;1.50;;;;;30.96;32.04;101412.66;5072210;28;45583;-70
2022/05/16 14:00:10;;;;;;;;;1.00;1.00;;;;;31.76;30.20;101410.97;5077462;27;46381;-70
2022/05/16 14:02:36;;;;;;;;;3.25;2.00;;;;;32.18;27.18;101412.16;5084525;27;45390;-71
2022/05/16 14:05:17;;;;;;;;;3.25;2.00;;;;;32.45;27.33;101418.88;5075023;27;45410;-70
2022/05/16 14:07:43;;;;;;;;;0.25;0.25;;;;;31.93;27.64;101408.84;5067737;28;46888;-69
2022/05/16 14:10:13;;;;;;;;;5.25;2.00;;;;;32.22;28.41;101413.50;5074024;27;46405;-70
2022/05/16 14:12:44;;;;;;;;;1.00;1.00;;;;;32.47;27.58;101414.88;5090034;27;45345;-70
2022/05/16 14:15:18;;;;;;;;;0.75;0.75;;;;;32.97;26.60;101419.44;5086152;27;45481;-70
2022/05/16 14:18:11;;;;;;;;;1.50;1.50;;;;;32.72;26.56;101411.72;5092042;27;45483;-69
2022/05/16 14:20:45;;;;;;;;;1.00;1.00;;;;;33.05;26.51;101410.97;5089843;27;45297;-70
2022/05/16 14:23:22;;;;;;;;;0.25;0.25;;;;;33.06;25.25;101404.34;5072555;28;45356;-70
2022/05/16 14:25:52;;;;;;;;;0.25;0.00;;;;;33.58;24.39;101408.59;5081839;27;45168;-70
2022/05/16 14:28:31;;;;;;;;;1.00;0.00;;;;;33.51;24.22;101420.75;5072423;28;45449;-71
2022/05/16 14:31:04;;;;;;;;;0.00;0.00;;;;;33.42;24.19;101418.13;5061905;28;47169;-71
2022/05/16 14:33:38;;;;;;;;;0.50;0.50;;;;;33.49;24.49;101420.94;5088200;27;45351;-71
2022/05/16 14:36:10;;;;;;;;;2.00;1.00;;;;;33.51;24.43;101415.19;5082947;27;45456;-68
2022/05/16 14:38:47;;;;;;;;;0.00;0.00;;;;;33.76;25.00;101397.81;5072747;28;45516;-70
2022/05/16 14:41:19;;;;;;;;;1.00;1.00;;;;;34.47;23.62;101408.56;5085322;27;46577;-71
2022/05/16 14:43:55;;;;;;;;;1.25;0.25;;;;;34.54;23.25;101401.06;5093239;27;46705;-69
2022/05/16 14:49:04;;;;;;;;;5.75;1.00;;;;;34.29;23.52;101395.25;5072233;28;45467;-69
2022/05/16 14:51:33;;;;;;;;;1.50;1.50;;;;;33.96;24.54;101411.78;5087698;27;45877;-70
2022/05/16 14:53:58;;;;;;;;;1.50;0.75;;;;;33.49;24.67;101406.19;5084762;27;45342;-70
2022/05/16 14:56:25;;;;;;;;;0.25;0.25;;;;;33.31;24.95;101390.88;5077406;27;45407;-70
2022/05/16 14:58:51;;;;;;;;;2.50;1.00;;;;;32.87;25.56;101399.47;5075869;27;45320;-70
2022/05/16 15:04:05;;;;;;;;;1.50;1.00;;;;;31.33;26.86;101409.88;5075953;27;45484;-70
2022/05/16 15:06:34;;;;;;;;;1.25;1.00;;;;;30.64;27.80;101409.09;5086774;27;45562;-71
2022/05/16 15:09:02;;;;;;;;;0.25;0.00;;;;;30.39;28.11;101402.84;5075701;27;45507;-71
2022/05/16 15:11:31;;;;;;;;;1.50;1.00;;;;;30.00;28.89;101386.34;5082253;27;45544;-69
2022/05/16 15:13:57;;;;;;;;;0.50;0.50;;;;;29.32;29.13;101410.91;5096053;27;45418;-69
2022/05/16 15:16:23;;;;;;;;;3.75;1.00;;;;;29.25;29.32;101410.75;5086255;27;45340;-70
2022/05/16 15:18:48;;;;;;;;;0.00;0.00;;;;;29.64;29.20;101407.19;5080128;27;45613;-69
2022/05/16 15:21:16;;;;;;;;;2.00;1.00;;;;;29.93;28.84;101406.56;5081900;27;46374;-70
2022/05/16 15:23:43;;;;;;;;;1.75;1.75;;;;;29.81;29.22;101419.06;5075312;28;45282;-70
2022/05/16 15:26:08;;;;;;;;;0.75;0.75;;;;;29.59;29.48;101415.19;5083375;27;45318;-69
2022/05/16 15:28:34;;;;;;;;;0.00;0.00;;;;;29.44;29.29;101409.50;5095812;27;45299;-69
2022/05/16 15:31:00;;;;;;;;;1.75;1.00;;;;;29.59;29.70;101413.28;5090763;27;46492;-69
2022/05/16 15:33:25;;;;;;;;;0.50;0.50;;;;;29.55;29.79;101403.59;5095221;27;45414;-70
2022/05/16 15:35:57;;;;;;;;;1.00;1.00;;;;;29.51;30.14;101396.72;5087823;27;45446;-70
2022/05/16 15:38:23;;;;;;;;;0.00;0.00;;;;;29.20;29.81;101396.59;5075026;28;45608;-70
2022/05/16 15:40:50;;;;;;;;;0.75;0.75;;;;;29.53;30.61;101402.06;5083575;27;47089;-71
2022/05/16 15:43:18;;;;;;;;;0.00;0.00;;;;;29.73;30.04;101404.22;5095301;27;45386;-71
2022/05/16 15:45:46;;;;;;;;;0.75;0.75;;;;;29.98;29.49;101399.47;5086281;27;45375;-69
2022/05/16 15:48:13;;;;;;;;;0.75;0.00;;;;;30.15;29.33;101380.88;5074484;28;45377;-69
2022/05/16 15:50:39;;;;;;;;;1.75;1.00;;;;;30.48;28.35;101379.63;5074394;27;47198;-69
2022/05/16 15:53:05;;;;;;;;;1.00;1.00;;;;;30.69;28.29;101383.66;5091187;27;45417;-69
2022/05/16 15:55:31;;;;;;;;;0.00;0.00;;;;;31.24;28.06;101388.84;5076380;27;45339;-69
2022/05/16 15:57:57;;;;;;;;;1.00;1.00;;;;;31.52;27.66;101373.28;5072947;28;45336;-70
2022/05/16 16:00:23;;;;;;;;;2.50;1.00;;;;;31.85;27.09;101389.53;5075013;28;45528;-70
2022/05/16 16:02:52;;;;;;;;;0.50;0.50;;;;;32.33;27.13;101389.94;5075847;27;45403;-70
2022/05/16 16:10:51;;;;;;;;;1.00;1.00;;;;;32.48;25.68;101369.41;5096560;27;45493;-69
2022/05/16 16:13:19;;;;;;;;;5.00;1.00;;;;;32.65;25.89;101384.72;5078320;27;45350;-71
2022/05/16 16:15:46;;;;;;;;;1.00;1.00;;;;;32.90;25.55;101378.78;5085231;27;45469;-70
2022/05/16 16:18:14;;;;;;;;;0.25;0.25;;;;;32.55;25.10;101363.91;5064356;28;45405;-69
2022/05/16 16:20:42;;;;;;;;;0.00;0.00;;;;;32.22;25.91;101371.88;5093087;27;45613;-71
2022/05/16 16:23:08;;;;;;;;;0.00;0.00;;;;;32.32;25.63;101383.53;5096840;27;45319;-70
2022/05/16 16:25:38;;;;;;;;;0.50;0.50;;;;;32.40;26.36;101375.09;5096830;27;45401;-70
2022/05/16 16:28:06;;;;;;;;;1.00;1.00;;;;;32.78;25.72;101381.22;5096634;27;45218;-70
2022/05/16 16:30:36;;;;;;;;;0.50;0.50;;;;;32.81;25.13;101377.19;5096235;27;45334;-70
2022/05/16 16:33:01;;;;;;;;;0.50;0.50;;;;;32.75;25.25;101373.28;5065955;28;45417;-70
2022/05/16 16:35:27;;;;;;;;;1.00;1.00;;;;;32.63;25.11;101367.41;5075993;28;45227;-70
2022/05/16 16:37:52;;;;;;;;;2.00;1.00;;;;;32.33;25.57;101379.69;5076145;28;45240;-70
2022/05/16 16:40:18;;;;;;;;;0.50;0.50;;;;;32.44;25.80;101375.53;5075901;28;45251;-70
2022/05/16 16:42:43;;;;;;;;;0.50;0.50;;;;;32.44;25.62;101372.75;5076311;28;45308;-70
2022/05/16 16:45:15;;;;;;;;;0.00;0.00;;;;;31.95;25.60;101373.47;5076149;28;45404;-70
2022/05/16 16:47:44;;;;;;;;;1.50;1.00;;;;;31.48;26.37;101376.63;5075810;27;45189;-69
2022/05/16 16:50:11;;;;;;;;;1.25;0.50;;;;;31.27;26.70;101371.00;5075581;27;47082;-70